RCNO weather

Donshi Heliport
Donshi, Penghu County, Taiwan

Public forecast

Using degrees Celsius for public forecast. Weather courtesy of forecast.io.

Closest aviation weather report (METAR) to Donshi Heliport

Closest report is Tainan Airport, 35.0 nm (64.8 km) ESE. Retrieved 2019/10/15 09:30 UTC (29 minutes ago):

RCNN 150930Z 34008KT 9000 FEW012 SCT100 27/18 Q1015 NOSIG RMK A2998

Closest aviation forecast (TAF) to Donshi Heliport

Forecast is more than 12 hours old.

Closest forecast is Makung Airport, 18.8 nm (34.8 km) N. Retrieved 2016/01/09 00:24 UTC (4 years ago):

TAF RCQC 092300Z 1000/1024 02014KT 8000 SCT006 BKN012 BKN021 TX19/1006Z TN16/1020Z BECMG 1007/1010 FEW006 BKN021 BKN040 BECMG 1011/1014 5000 BR SCT006 BKN014 TEMPO 1018/1023 3200 -RA BR SCT006 BKN012